Time;durP1;ratioP1;P1;durP2;ratioP2;P2;SDS_P1;SDS_P2;PMS_P1;PMS_P2;Temp;Humidity;BMP_temperature;BMP_pressure;BME280_temperature;BME280_humidity;BME280_pressure;Samples;Min_cycle;Max_cycle;Signal;HPM_P1;HPM_P2
2024/01/10 00:00:08;;;;;;;;;39.25;29.25;;;;;-144.24;100.00;114865.94;5034270;28;70706;-72
2024/01/10 00:02:34;;;;;;;;;41.00;32.00;;;;;-144.24;100.00;114865.94;5035639;28;45446;-71
2024/01/10 00:04:59;;;;;;;;;42.75;30.50;;;;;-144.24;100.00;114865.94;5035200;28;45321;-71
2024/01/10 00:07:25;;;;;;;;;43.00;29.50;;;;;-144.24;100.00;114865.94;5035774;28;46765;-73
2024/01/10 00:09:50;;;;;;;;;35.75;26.25;;;;;-144.24;100.00;114865.94;5032659;28;47392;-71
2024/01/10 00:12:15;;;;;;;;;44.75;36.00;;;;;-144.24;100.00;114865.94;5016402;28;72111;-71
2024/01/10 00:14:41;;;;;;;;;39.50;31.00;;;;;-144.24;100.00;114865.94;5033946;28;64319;-73
2024/01/10 00:17:06;;;;;;;;;40.00;28.25;;;;;-144.24;100.00;114865.94;5034363;28;53036;-71
2024/01/10 00:19:31;;;;;;;;;36.25;29.25;;;;;-144.24;100.00;114865.94;5032140;28;68646;-72
2024/01/10 00:21:57;;;;;;;;;39.75;31.25;;;;;-144.24;100.00;114865.94;5030878;28;58362;-73
2024/01/10 00:24:22;;;;;;;;;38.00;32.25;;;;;-144.24;100.00;114865.94;5033583;28;45425;-71
2024/01/10 00:26:47;;;;;;;;;42.00;29.00;;;;;-144.24;100.00;114865.94;5034224;28;60449;-71
2024/01/10 00:29:13;;;;;;;;;38.75;29.00;;;;;-144.24;100.00;114865.94;5033806;28;69318;-72
2024/01/10 00:31:39;;;;;;;;;31.75;24.50;;;;;-144.24;100.00;114865.94;5034740;28;45474;-72
2024/01/10 00:34:05;;;;;;;;;32.50;26.50;;;;;-144.24;100.00;114865.94;5035473;28;45390;-72
2024/01/10 00:36:30;;;;;;;;;33.50;28.75;;;;;-144.24;100.00;114865.94;5031027;28;45452;-75
2024/01/10 00:38:55;;;;;;;;;35.50;30.00;;;;;-144.24;100.00;114865.94;5029796;28;65451;-72
2024/01/10 00:41:21;;;;;;;;;34.50;29.25;;;;;-144.24;100.00;114865.94;5029163;28;45373;-72
2024/01/10 00:43:46;;;;;;;;;36.25;29.25;;;;;-144.24;100.00;114865.94;5029157;28;61221;-71
2024/01/10 00:46:11;;;;;;;;;44.75;33.75;;;;;-144.24;100.00;114865.94;5030701;28;53970;-73
2024/01/10 00:48:37;;;;;;;;;40.00;29.00;;;;;-144.24;100.00;114865.94;5031848;28;71781;-71
2024/01/10 00:51:08;;;;;;;;;40.00;29.75;;;;;-144.24;100.00;114865.94;5021282;28;67701;-71
2024/01/10 00:53:33;;;;;;;;;31.25;29.75;;;;;-144.24;100.00;114865.94;5034919;28;45466;-71
2024/01/10 00:55:58;;;;;;;;;38.25;30.00;;;;;-144.24;100.00;114865.94;5033901;28;45529;-71
2024/01/10 00:58:24;;;;;;;;;39.50;32.50;;;;;-144.24;100.00;114865.94;5030117;28;70682;-73
2024/01/10 01:00:49;;;;;;;;;47.25;35.25;;;;;-144.24;100.00;114865.94;5013762;28;71603;-71
2024/01/10 01:03:14;;;;;;;;;31.75;27.00;;;;;-144.24;100.00;114865.94;5034899;28;51186;-70
2024/01/10 01:05:40;;;;;;;;;35.25;28.75;;;;;-144.24;100.00;114865.94;5038977;28;45453;-74
2024/01/10 01:08:05;;;;;;;;;39.50;27.50;;;;;-144.24;100.00;114865.94;5032913;28;68163;-72
2024/01/10 01:10:31;;;;;;;;;38.50;32.75;;;;;-144.24;100.00;114865.94;5032416;28;45445;-72
2024/01/10 01:12:56;;;;;;;;;44.00;32.75;;;;;-144.24;100.00;114865.94;5034035;28;65821;-70
2024/01/10 01:15:21;;;;;;;;;34.50;31.00;;;;;-144.24;100.00;114865.94;5034284;28;45320;-71
2024/01/10 01:17:47;;;;;;;;;39.25;30.00;;;;;-144.24;100.00;114865.94;5033586;28;61830;-71
2024/01/10 01:20:12;;;;;;;;;47.75;39.25;;;;;-144.24;100.00;114865.94;5031447;28;66926;-71
2024/01/10 01:22:37;;;;;;;;;42.75;36.25;;;;;-144.24;100.00;114865.94;5014646;28;67943;-72
2024/01/10 01:25:03;;;;;;;;;39.75;28.25;;;;;-144.24;100.00;114865.94;5030018;28;67368;-72
2024/01/10 01:27:28;;;;;;;;;40.00;30.25;;;;;-144.24;100.00;114865.94;5031554;28;46068;-71
2024/01/10 01:29:54;;;;;;;;;43.25;34.25;;;;;-144.24;100.00;114865.94;5028712;28;45936;-70
2024/01/10 01:32:19;;;;;;;;;39.75;27.75;;;;;-144.24;100.00;114865.94;5031005;28;49882;-71
2024/01/10 01:34:44;;;;;;;;;41.00;29.75;;;;;-144.24;100.00;114865.94;5033075;28;61452;-71
2024/01/10 01:37:10;;;;;;;;;38.25;29.00;;;;;-144.24;100.00;114865.94;5029069;28;70318;-71
2024/01/10 01:39:35;;;;;;;;;45.25;31.75;;;;;-144.24;100.00;114865.94;5007484;28;45483;-73
2024/01/10 01:42:01;;;;;;;;;35.50;27.00;;;;;-144.24;100.00;114865.94;5009873;28;45355;-74
2024/01/10 01:44:27;;;;;;;;;39.75;30.25;;;;;-144.24;100.00;114865.94;4994550;28;45433;-71
2024/01/10 01:46:52;;;;;;;;;44.75;34.75;;;;;-144.24;100.00;114865.94;4992484;28;70805;-70
2024/01/10 01:49:18;;;;;;;;;52.00;35.25;;;;;-144.24;100.00;114865.94;4995610;28;68749;-73
2024/01/10 01:51:43;;;;;;;;;46.25;35.50;;;;;-144.24;100.00;114865.94;5010136;28;61613;-72
2024/01/10 01:54:09;;;;;;;;;51.25;39.25;;;;;-144.24;100.00;114865.94;5013079;28;58940;-71
2024/01/10 01:56:36;;;;;;;;;28.00;13.50;;;;;-144.24;100.00;114865.94;4997283;28;46754;-70
2024/01/10 01:59:02;;;;;;;;;49.00;37.25;;;;;-144.24;100.00;114865.94;5013594;28;45347;-71
2024/01/10 02:01:28;;;;;;;;;37.75;33.50;;;;;-144.24;100.00;114865.94;4993589;28;45299;-73
2024/01/10 02:03:55;;;;;;;;;37.00;26.00;;;;;-144.24;100.00;114865.94;4992633;28;45536;-71
2024/01/10 02:06:20;;;;;;;;;36.50;33.75;;;;;-144.24;100.00;114865.94;5012575;28;46231;-71
2024/01/10 02:08:46;;;;;;;;;49.75;32.50;;;;;-144.24;100.00;114865.94;4991728;28;71396;-70
2024/01/10 02:11:11;;;;;;;;;38.50;28.00;;;;;-144.24;100.00;114865.94;4997749;28;45481;-73
2024/01/10 02:13:36;;;;;;;;;36.25;26.25;;;;;-144.24;100.00;114865.94;4993651;28;60645;-71
2024/01/10 02:16:03;;;;;;;;;40.50;33.25;;;;;-144.24;100.00;114865.94;4993941;28;73029;-72
2024/01/10 02:18:29;;;;;;;;;39.25;34.25;;;;;-144.24;100.00;114865.94;4989283;28;45497;-71
2024/01/10 02:20:54;;;;;;;;;45.75;32.50;;;;;-144.24;100.00;114865.94;4995925;28;45699;-70
2024/01/10 02:23:19;;;;;;;;;43.25;34.75;;;;;-144.24;100.00;114865.94;4997526;28;58133;-70
2024/01/10 02:25:45;;;;;;;;;44.50;30.75;;;;;-144.24;100.00;114865.94;4994420;28;71572;-72
2024/01/10 02:28:11;;;;;;;;;32.75;28.00;;;;;-144.24;100.00;114865.94;4995578;28;45990;-72
2024/01/10 02:30:36;;;;;;;;;38.00;30.75;;;;;-144.24;100.00;114865.94;4988925;28;62732;-70
2024/01/10 02:33:02;;;;;;;;;33.75;29.25;;;;;-144.24;100.00;114865.94;4994081;28;45386;-72
2024/01/10 02:35:27;;;;;;;;;50.75;40.75;;;;;-144.24;100.00;114865.94;4996948;28;51582;-70
2024/01/10 02:37:54;;;;;;;;;37.75;31.00;;;;;-144.24;100.00;114865.94;5002601;28;45414;-70
2024/01/10 02:40:20;;;;;;;;;45.50;33.75;;;;;-144.24;100.00;114865.94;5016414;28;45492;-70
2024/01/10 02:42:45;;;;;;;;;50.50;37.00;;;;;-144.24;100.00;114865.94;5034340;28;45716;-73
2024/01/10 02:45:10;;;;;;;;;40.25;31.00;;;;;-144.24;100.00;114865.94;5036056;28;45374;-73
2024/01/10 02:47:39;;;;;;;;;33.00;28.25;;;;;-144.24;100.00;114865.94;5036289;28;48140;-70
2024/01/10 02:50:05;;;;;;;;;38.50;27.25;;;;;-144.24;100.00;114865.94;5035746;28;45411;-70
2024/01/10 02:52:30;;;;;;;;;30.00;24.50;;;;;-144.24;100.00;114865.94;5017552;28;45583;-72
2024/01/10 02:54:56;;;;;;;;;39.50;31.50;;;;;-144.24;100.00;114865.94;5035705;28;70911;-70
2024/01/10 02:57:21;;;;;;;;;36.00;27.25;;;;;-144.24;100.00;114865.94;5032240;28;45295;-71
2024/01/10 02:59:46;;;;;;;;;54.25;33.25;;;;;-144.24;100.00;114865.94;5033345;28;45450;-70
2024/01/10 03:02:12;;;;;;;;;48.25;37.25;;;;;-144.24;100.00;114865.94;5035711;28;45575;-70
2024/01/10 03:04:37;;;;;;;;;32.25;29.75;;;;;-144.24;100.00;114865.94;5034738;28;65262;-70
2024/01/10 03:07:03;;;;;;;;;40.00;29.00;;;;;-144.24;100.00;114865.94;5034161;28;62309;-72
2024/01/10 03:09:28;;;;;;;;;35.50;28.25;;;;;-144.24;100.00;114865.94;5029567;28;45505;-70
2024/01/10 03:11:53;;;;;;;;;40.75;27.50;;;;;-144.24;100.00;114865.94;5033631;28;60868;-73
2024/01/10 03:14:19;;;;;;;;;50.00;29.50;;;;;-144.24;100.00;114865.94;5033923;28;71474;-72
2024/01/10 03:16:45;;;;;;;;;36.75;26.00;;;;;-144.24;100.00;114865.94;5033145;28;67593;-73
2024/01/10 03:19:11;;;;;;;;;38.50;30.75;;;;;-144.24;100.00;114865.94;5034388;28;45777;-71
2024/01/10 03:21:36;;;;;;;;;40.75;32.00;;;;;-144.24;100.00;114865.94;5036927;28;45287;-71
2024/01/10 03:24:01;;;;;;;;;41.50;30.75;;;;;-144.24;100.00;114865.94;5014752;28;54054;-71
2024/01/10 03:26:27;;;;;;;;;37.75;30.25;;;;;-144.24;100.00;114865.94;5012852;28;46415;-73
2024/01/10 03:28:53;;;;;;;;;31.00;27.00;;;;;-144.24;100.00;114865.94;5031720;28;45942;-71
2024/01/10 03:31:19;;;;;;;;;29.50;25.75;;;;;-144.24;100.00;114865.94;5035528;28;45497;-72
2024/01/10 03:33:45;;;;;;;;;40.25;26.00;;;;;-144.24;100.00;114865.94;5017517;28;45537;-72
2024/01/10 03:36:15;;;;;;;;;36.50;23.00;;;;;-144.24;100.00;114865.94;5035349;28;61341;-71
2024/01/10 03:38:41;;;;;;;;;49.75;30.00;;;;;-144.24;100.00;114865.94;5016367;28;45466;-71
2024/01/10 03:41:06;;;;;;;;;31.25;26.25;;;;;-144.24;100.00;114865.94;5014690;28;64173;-72
2024/01/10 03:43:31;;;;;;;;;33.00;27.75;;;;;-144.24;100.00;114865.94;5029946;28;45979;-73
2024/01/10 03:45:57;;;;;;;;;28.25;20.25;;;;;-144.24;100.00;114865.94;5017178;28;45390;-71
2024/01/10 03:48:23;;;;;;;;;24.50;23.25;;;;;-144.24;100.00;114865.94;5017905;28;45329;-75
2024/01/10 03:50:48;;;;;;;;;40.75;32.50;;;;;-144.24;100.00;114865.94;5035666;28;45408;-71
2024/01/10 03:53:13;;;;;;;;;39.25;26.25;;;;;-144.24;100.00;114865.94;5035240;28;73637;-71
2024/01/10 03:55:39;;;;;;;;;37.50;26.50;;;;;-144.24;100.00;114865.94;5034961;28;65366;-71
2024/01/10 03:58:04;;;;;;;;;40.75;30.50;;;;;-144.24;100.00;114865.94;5036032;28;45527;-74
2024/01/10 04:00:29;;;;;;;;;36.00;33.50;;;;;-144.24;100.00;114865.94;5035472;28;45616;-71
2024/01/10 04:02:55;;;;;;;;;38.00;28.25;;;;;-144.24;100.00;114865.94;5034542;28;47558;-73
2024/01/10 04:05:20;;;;;;;;;31.00;27.50;;;;;-144.24;100.00;114865.94;5034368;28;66194;-74
2024/01/10 04:07:46;;;;;;;;;38.25;27.75;;;;;-144.24;100.00;114865.94;5035813;28;45776;-71
2024/01/10 04:10:13;;;;;;;;;36.50;30.50;;;;;-144.24;100.00;114865.94;5017073;28;57558;-71
2024/01/10 04:12:45;;;;;;;;;35.50;28.75;;;;;-144.24;100.00;114865.94;5034136;28;46561;-73
2024/01/10 04:15:11;;;;;;;;;37.75;30.75;;;;;-144.24;100.00;114865.94;5017150;28;45426;-71
2024/01/10 04:17:37;;;;;;;;;39.00;31.50;;;;;-144.24;100.00;114865.94;5030237;28;45433;-72
2024/01/10 04:20:03;;;;;;;;;46.25;29.25;;;;;-144.24;100.00;114865.94;5035632;28;45441;-72
2024/01/10 04:22:29;;;;;;;;;33.25;29.25;;;;;-144.24;100.00;114865.94;5030585;28;46628;-72
2024/01/10 04:24:57;;;;;;;;;41.25;30.25;;;;;-144.24;100.00;114865.94;5033715;28;46709;-73
2024/01/10 04:27:22;;;;;;;;;44.00;30.75;;;;;-144.24;100.00;114865.94;5033935;28;45216;-72
2024/01/10 04:29:48;;;;;;;;;32.00;24.00;;;;;-144.24;100.00;114865.94;5034937;28;64118;-73
2024/01/10 04:32:14;;;;;;;;;42.75;31.25;;;;;-144.24;100.00;114865.94;5016576;28;46467;-72
2024/01/10 04:34:39;;;;;;;;;41.00;31.00;;;;;-144.24;100.00;114865.94;5034814;28;45290;-72
2024/01/10 04:37:06;;;;;;;;;44.25;31.50;;;;;-144.24;100.00;114865.94;5032401;28;45346;-72
2024/01/10 04:39:32;;;;;;;;;40.75;35.00;;;;;-144.24;100.00;114865.94;5034303;28;45548;-72
2024/01/10 04:41:57;;;;;;;;;37.00;26.50;;;;;-144.24;100.00;114865.94;5034774;28;46626;-74
2024/01/10 04:44:23;;;;;;;;;35.50;30.75;;;;;-144.24;100.00;114865.94;5015125;28;65906;-71
2024/01/10 04:46:48;;;;;;;;;37.25;29.00;;;;;-144.24;100.00;114865.94;5035527;28;45385;-71
2024/01/10 04:49:13;;;;;;;;;24.25;23.00;;;;;-144.24;100.00;114865.94;5016987;28;45730;-72
2024/01/10 04:51:39;;;;;;;;;41.75;33.75;;;;;-144.24;100.00;114865.94;5032434;28;70180;-74
2024/01/10 04:54:04;;;;;;;;;40.00;30.50;;;;;-144.24;100.00;114865.94;5034665;28;61138;-72
2024/01/10 04:56:30;;;;;;;;;40.25;30.75;;;;;-144.24;100.00;114865.94;5015621;28;45408;-74
2024/01/10 04:58:55;;;;;;;;;31.00;22.25;;;;;-144.24;100.00;114865.94;5036026;28;45657;-71
2024/01/10 05:01:20;;;;;;;;;33.25;28.25;;;;;-144.24;100.00;114865.94;5033560;28;72932;-72
2024/01/10 05:03:46;;;;;;;;;48.50;32.25;;;;;-144.24;100.00;114865.94;5033609;28;68735;-73
2024/01/10 05:06:11;;;;;;;;;32.75;25.50;;;;;-144.24;100.00;114865.94;5028804;28;59404;-73
2024/01/10 05:08:36;;;;;;;;;39.25;29.25;;;;;-144.24;100.00;114865.94;5011099;28;45545;-72
2024/01/10 05:11:02;;;;;;;;;37.75;27.25;;;;;-144.24;100.00;114865.94;5034258;28;48352;-74
2024/01/10 05:13:28;;;;;;;;;44.00;33.25;;;;;-144.24;100.00;114865.94;5015349;28;45351;-72
2024/01/10 05:15:54;;;;;;;;;30.50;26.25;;;;;-144.24;100.00;114865.94;5034871;28;45458;-71
2024/01/10 05:18:20;;;;;;;;;36.50;25.50;;;;;-144.24;100.00;114865.94;5035124;28;45468;-72
2024/01/10 05:20:45;;;;;;;;;43.75;26.25;;;;;-144.24;100.00;114865.94;5015493;28;45388;-71
2024/01/10 05:23:10;;;;;;;;;45.75;30.75;;;;;-144.24;100.00;114865.94;5033491;28;69901;-73
2024/01/10 05:25:36;;;;;;;;;42.50;32.00;;;;;-144.24;100.00;114865.94;5036913;28;58064;-72
2024/01/10 05:28:01;;;;;;;;;29.50;24.25;;;;;-144.24;100.00;114865.94;5038633;28;45468;-72
2024/01/10 05:30:27;;;;;;;;;48.00;33.50;;;;;-144.24;100.00;114865.94;5020197;28;46556;-75
2024/01/10 05:32:52;;;;;;;;;40.00;32.50;;;;;-144.24;100.00;114865.94;5036838;28;69079;-71
2024/01/10 05:35:17;;;;;;;;;36.25;28.00;;;;;-144.24;100.00;114865.94;5036308;28;62549;-71
2024/01/10 05:37:43;;;;;;;;;40.25;26.75;;;;;-144.24;100.00;114865.94;5036082;28;45466;-73
2024/01/10 05:40:10;;;;;;;;;45.00;36.00;;;;;-144.24;100.00;114865.94;5037796;28;45414;-74
2024/01/10 05:42:37;;;;;;;;;43.50;31.25;;;;;-144.24;100.00;114865.94;5019582;28;45532;-72
2024/01/10 05:45:03;;;;;;;;;40.25;33.50;;;;;-144.24;100.00;114865.94;5038042;28;45648;-71
2024/01/10 05:47:29;;;;;;;;;43.75;30.75;;;;;-144.24;100.00;114865.94;5035493;28;45466;-72
2024/01/10 05:49:54;;;;;;;;;36.50;31.75;;;;;-144.24;100.00;114865.94;5035045;28;47650;-71
2024/01/10 05:52:20;;;;;;;;;45.75;34.50;;;;;-144.24;100.00;114865.94;5036905;28;64550;-72
2024/01/10 05:54:48;;;;;;;;;38.50;24.75;;;;;-144.24;100.00;114865.94;5033991;28;45411;-72
2024/01/10 05:57:13;;;;;;;;;36.00;30.00;;;;;-144.24;100.00;114865.94;5019778;28;45425;-73
2024/01/10 05:59:39;;;;;;;;;29.00;22.00;;;;;-144.24;100.00;114865.94;5036030;28;48232;-71
2024/01/10 06:02:04;;;;;;;;;39.50;31.00;;;;;-144.24;100.00;114865.94;5037273;28;45408;-73
2024/01/10 06:04:31;;;;;;;;;35.25;30.75;;;;;-144.24;100.00;114865.94;5017510;28;45365;-72
2024/01/10 06:06:59;;;;;;;;;41.00;27.00;;;;;-144.24;100.00;114865.94;5036942;28;46141;-71
2024/01/10 06:09:24;;;;;;;;;36.25;28.50;;;;;-144.24;100.00;114865.94;5032922;28;67401;-75
2024/01/10 06:11:50;;;;;;;;;36.75;23.75;;;;;-144.24;100.00;114865.94;5034956;28;45548;-73
2024/01/10 06:14:15;;;;;;;;;46.50;27.00;;;;;-144.24;100.00;114865.94;5033781;28;45927;-72
2024/01/10 06:16:41;;;;;;;;;49.75;31.75;;;;;-144.24;100.00;114865.94;5036698;28;45441;-72
2024/01/10 06:19:06;;;;;;;;;38.00;25.50;;;;;-144.24;100.00;114865.94;5035721;28;67008;-74
2024/01/10 06:21:32;;;;;;;;;17.00;11.00;;;;;-144.24;100.00;114865.94;5039497;28;68869;-72
2024/01/10 06:23:57;;;;;;;;;44.25;32.25;;;;;-144.24;100.00;114865.94;5036635;28;46440;-73
2024/01/10 06:26:22;;;;;;;;;25.50;20.25;;;;;-144.24;100.00;114865.94;5035860;28;58884;-71
2024/01/10 06:28:48;;;;;;;;;32.25;25.25;;;;;-144.24;100.00;114865.94;5033447;28;45875;-72
2024/01/10 06:31:13;;;;;;;;;33.00;23.75;;;;;-144.24;100.00;114865.94;5035773;28;59346;-71
2024/01/10 06:33:39;;;;;;;;;31.75;26.00;;;;;-144.24;100.00;114865.94;5018224;28;45491;-72
2024/01/10 06:36:04;;;;;;;;;29.75;25.25;;;;;-144.24;100.00;114865.94;5019115;28;45454;-74
2024/01/10 06:38:30;;;;;;;;;34.00;24.50;;;;;-144.24;100.00;114865.94;5018648;28;46681;-72
2024/01/10 06:40:55;;;;;;;;;31.00;25.00;;;;;-144.24;100.00;114865.94;5033953;28;66383;-73
2024/01/10 06:43:20;;;;;;;;;41.00;27.50;;;;;-144.24;100.00;114865.94;5035737;28;62961;-72
2024/01/10 06:45:46;;;;;;;;;32.00;26.25;;;;;-144.24;100.00;114865.94;5017302;28;62848;-73
2024/01/10 06:48:11;;;;;;;;;35.25;29.25;;;;;-144.24;100.00;114865.94;5036585;28;45629;-74
2024/01/10 06:50:37;;;;;;;;;37.00;30.50;;;;;-144.24;100.00;114865.94;5035707;28;45525;-72
2024/01/10 06:53:03;;;;;;;;;39.00;25.50;;;;;-144.24;100.00;114865.94;5034483;28;45371;-76
2024/01/10 06:55:29;;;;;;;;;35.00;23.00;;;;;-144.24;100.00;114865.94;5036857;28;45568;-73
2024/01/10 06:57:54;;;;;;;;;38.25;24.00;;;;;-144.24;100.00;114865.94;5033548;28;45659;-76
2024/01/10 07:00:21;;;;;;;;;35.00;25.75;;;;;-144.24;100.00;114865.94;5035705;28;45810;-73
2024/01/10 07:02:46;;;;;;;;;24.75;20.75;;;;;-144.24;100.00;114865.94;5036308;28;45196;-71
2024/01/10 07:05:12;;;;;;;;;29.75;22.50;;;;;-144.24;100.00;114865.94;5036328;28;45335;-71
2024/01/10 07:07:37;;;;;;;;;26.50;19.00;;;;;-144.24;100.00;114865.94;5034418;28;72804;-73
2024/01/10 07:10:06;;;;;;;;;37.00;30.00;;;;;-144.24;100.00;114865.94;5035436;28;45393;-73
2024/01/10 07:12:32;;;;;;;;;39.00;27.00;;;;;-144.24;100.00;114865.94;5005188;28;45511;-73
2024/01/10 07:14:58;;;;;;;;;26.75;20.50;;;;;-144.24;100.00;114865.94;5013614;28;45521;-70
2024/01/10 07:17:23;;;;;;;;;32.25;23.75;;;;;-144.24;100.00;114865.94;5026889;28;46706;-70
2024/01/10 07:19:49;;;;;;;;;29.00;21.25;;;;;-144.24;100.00;114865.94;5032414;28;45468;-74
2024/01/10 07:22:15;;;;;;;;;30.25;25.50;;;;;-144.24;100.00;114865.94;5025595;28;62981;-71
2024/01/10 07:24:40;;;;;;;;;31.25;23.25;;;;;-144.24;100.00;114865.94;5023366;28;45911;-73
2024/01/10 07:27:06;;;;;;;;;29.75;26.25;;;;;-144.24;100.00;114865.94;5024696;28;46871;-74
2024/01/10 07:29:32;;;;;;;;;37.00;25.75;;;;;-144.24;100.00;114865.94;5032567;28;45574;-71
2024/01/10 07:31:57;;;;;;;;;31.50;23.50;;;;;-144.24;100.00;114865.94;5027667;28;45613;-72
2024/01/10 07:34:23;;;;;;;;;19.75;15.50;;;;;-144.24;100.00;114865.94;5012320;28;45564;-70
2024/01/10 07:36:48;;;;;;;;;26.50;23.50;;;;;-144.24;100.00;114865.94;5026591;28;71748;-70
2024/01/10 07:39:15;;;;;;;;;26.50;23.75;;;;;-144.24;100.00;114865.94;5028876;28;45503;-70
2024/01/10 07:41:41;;;;;;;;;33.50;22.00;;;;;-144.24;100.00;114865.94;5027615;28;45540;-70
2024/01/10 07:44:09;;;;;;;;;25.75;23.75;;;;;-144.24;100.00;114865.94;5026279;28;45496;-71
2024/01/10 07:46:35;;;;;;;;;28.25;23.50;;;;;-144.24;100.00;114865.94;5027996;28;46498;-71
2024/01/10 07:49:00;;;;;;;;;25.50;23.00;;;;;-144.24;100.00;114865.94;5032459;28;45493;-70
2024/01/10 07:51:27;;;;;;;;;28.25;22.75;;;;;-144.24;100.00;114865.94;5032442;28;45497;-71
2024/01/10 07:53:53;;;;;;;;;34.50;25.25;;;;;-144.24;100.00;114865.94;5032967;28;64173;-71
2024/01/10 07:56:19;;;;;;;;;33.75;25.25;;;;;-144.24;100.00;114865.94;5029476;28;61233;-73
2024/01/10 07:58:45;;;;;;;;;36.50;24.75;;;;;-144.24;100.00;114865.94;5029347;28;45558;-72
2024/01/10 08:01:10;;;;;;;;;21.50;14.75;;;;;-144.24;100.00;114865.94;5027064;28;68259;-73
2024/01/10 08:03:36;;;;;;;;;24.50;22.75;;;;;-144.24;100.00;114865.94;5028712;28;45469;-73
2024/01/10 08:06:02;;;;;;;;;26.25;22.00;;;;;-144.24;100.00;114865.94;5029918;28;46165;-73
2024/01/10 08:08:27;;;;;;;;;22.00;19.50;;;;;-144.24;100.00;114865.94;5030851;28;45500;-70
2024/01/10 08:10:52;;;;;;;;;25.50;21.00;;;;;-144.24;100.00;114865.94;5030526;28;60929;-71
2024/01/10 08:13:18;;;;;;;;;31.25;23.25;;;;;-144.24;100.00;114865.94;5032804;28;65715;-70
2024/01/10 08:15:43;;;;;;;;;26.75;21.50;;;;;-144.24;100.00;114865.94;5026716;28;51367;-71
2024/01/10 08:18:08;;;;;;;;;28.50;24.00;;;;;-144.24;100.00;114865.94;5032072;28;63217;-70
2024/01/10 08:20:34;;;;;;;;;23.50;23.25;;;;;-144.24;100.00;114865.94;5029350;28;68296;-73
2024/01/10 08:22:59;;;;;;;;;25.50;23.25;;;;;-144.24;100.00;114865.94;5030163;28;45712;-70
2024/01/10 08:25:24;;;;;;;;;70.25;49.50;;;;;-144.24;100.00;114865.94;5015719;28;61222;-72
2024/01/10 08:27:53;;;;;;;;;35.00;29.00;;;;;-144.24;100.00;114865.94;5015661;28;46187;-70
2024/01/10 08:30:18;;;;;;;;;65.25;40.25;;;;;-144.24;100.00;114865.94;5012600;28;45488;-70
2024/01/10 08:32:44;;;;;;;;;46.75;35.00;;;;;-144.24;100.00;114865.94;5013472;28;45620;-70
2024/01/10 08:35:09;;;;;;;;;34.75;22.75;;;;;-144.24;100.00;114865.94;5026604;28;52025;-69
2024/01/10 08:37:35;;;;;;;;;34.75;27.75;;;;;-144.24;100.00;114865.94;5025408;28;64444;-71
2024/01/10 08:40:06;;;;;;;;;28.50;28.50;;;;;-144.24;100.00;114865.94;5034732;28;45434;-70
2024/01/10 08:42:31;;;;;;;;;39.25;29.00;;;;;-144.24;100.00;114865.94;5026591;28;45475;-69
2024/01/10 08:44:57;;;;;;;;;34.50;31.00;;;;;-144.24;100.00;114865.94;5029124;28;45374;-69
2024/01/10 08:47:22;;;;;;;;;29.75;26.00;;;;;-144.24;100.00;114865.94;5030404;28;66301;-69
2024/01/10 08:49:47;;;;;;;;;34.00;26.00;;;;;-144.24;100.00;114865.94;5032060;28;45935;-69
2024/01/10 08:52:13;;;;;;;;;24.75;22.25;;;;;-144.24;100.00;114865.94;5027154;28;60841;-69
2024/01/10 08:54:38;;;;;;;;;32.00;23.00;;;;;-144.24;100.00;114865.94;5028973;28;46630;-69
2024/01/10 08:57:04;;;;;;;;;18.00;17.50;;;;;-144.24;100.00;114865.94;5027802;28;72697;-68
2024/01/10 08:59:29;;;;;;;;;32.50;23.25;;;;;-144.24;100.00;114865.94;5028050;28;45513;-69
2024/01/10 09:01:55;;;;;;;;;25.00;21.00;;;;;-144.24;100.00;114865.94;5026825;28;61829;-69
2024/01/10 09:04:20;;;;;;;;;27.00;23.50;;;;;-144.24;100.00;114865.94;5032644;28;45709;-69
2024/01/10 09:06:46;;;;;;;;;28.75;28.00;;;;;-144.24;100.00;114865.94;5014613;28;72133;-69
2024/01/10 09:09:12;;;;;;;;;36.25;26.25;;;;;-144.24;100.00;114865.94;5014700;28;45638;-69
2024/01/10 09:11:38;;;;;;;;;31.00;23.50;;;;;-144.24;100.00;114865.94;5032401;28;45373;-69
2024/01/10 09:14:03;;;;;;;;;32.00;26.25;;;;;-144.24;100.00;114865.94;5014219;28;45667;-69
2024/01/10 09:16:29;;;;;;;;;34.25;24.25;;;;;-144.24;100.00;114865.94;5032223;28;45465;-69
2024/01/10 09:18:57;;;;;;;;;27.75;22.75;;;;;-144.24;100.00;114865.94;5029017;28;56461;-68
2024/01/10 09:21:22;;;;;;;;;34.25;28.00;;;;;-144.24;100.00;114865.94;5031306;28;46260;-70
2024/01/10 09:23:50;;;;;;;;;34.75;26.25;;;;;-144.24;100.00;114865.94;5033017;28;45529;-69
2024/01/10 09:26:16;;;;;;;;;46.75;29.00;;;;;-144.24;100.00;114865.94;5021786;28;45546;-70
2024/01/10 09:28:42;;;;;;;;;42.25;32.75;;;;;-144.24;100.00;114865.94;5031112;28;45556;-71
2024/01/10 09:31:07;;;;;;;;;29.75;23.50;;;;;-144.24;100.00;114865.94;5030453;28;61512;-72
2024/01/10 09:33:33;;;;;;;;;32.00;26.25;;;;;-144.24;100.00;114865.94;5014943;28;48837;-70
2024/01/10 09:35:59;;;;;;;;;32.00;26.25;;;;;-144.24;100.00;114865.94;5031702;28;47013;-69
2024/01/10 09:38:24;;;;;;;;;28.00;21.00;;;;;-144.24;100.00;114865.94;5177001;22;46704;-69
2024/01/10 09:40:52;;;;;;;;;37.00;29.00;;;;;-144.24;100.00;114865.94;5071579;28;63253;-71
2024/01/10 09:43:17;;;;;;;;;56.25;37.00;;;;;-144.24;100.00;114865.94;5070611;28;46583;-69
2024/01/10 09:45:46;;;;;;;;;37.25;27.75;;;;;-144.24;100.00;114865.94;5066064;28;69720;-69
2024/01/10 09:48:13;;;;;;;;;38.00;28.75;;;;;-144.24;100.00;114865.94;5072512;27;45375;-72
2024/01/10 09:50:38;;;;;;;;;32.25;26.00;;;;;-144.24;100.00;114865.94;5071910;28;45415;-70
2024/01/10 09:53:07;;;;;;;;;37.00;26.50;;;;;-144.24;100.00;114865.94;5070107;28;71413;-69
2024/01/10 09:55:35;;;;;;;;;31.75;26.00;;;;;-144.24;100.00;114865.94;5073427;28;45446;-69
2024/01/10 09:58:05;;;;;;;;;34.75;22.50;;;;;-144.24;100.00;114865.94;5066902;28;45526;-70
2024/01/10 10:00:33;;;;;;;;;41.50;26.50;;;;;-144.24;100.00;114865.94;5067751;28;45500;-70
2024/01/10 10:02:59;;;;;;;;;33.25;28.50;;;;;-144.24;100.00;114865.94;5072178;28;45477;-69
2024/01/10 10:05:24;;;;;;;;;35.00;27.75;;;;;-144.24;100.00;114865.94;5060059;28;64332;-70
2024/01/10 10:07:53;;;;;;;;;38.75;30.00;;;;;-144.24;100.00;114865.94;5070088;28;64531;-68
2024/01/10 10:10:18;;;;;;;;;27.75;22.50;;;;;-144.24;100.00;114865.94;5067850;28;45388;-69
2024/01/10 10:12:52;;;;;;;;;34.00;25.75;;;;;-144.24;100.00;114865.94;5073060;27;46400;-69
2024/01/10 10:15:19;;;;;;;;;29.50;28.50;;;;;-144.24;100.00;114865.94;5075302;27;45485;-69
2024/01/10 10:17:46;;;;;;;;;30.25;24.50;;;;;-144.24;100.00;114865.94;5072764;27;45501;-69
2024/01/10 10:20:24;;;;;;;;;31.25;25.00;;;;;-144.24;100.00;114865.94;5074521;28;45581;-70
2024/01/10 10:23:04;;;;;;;;;34.50;27.50;;;;;-144.24;100.00;114865.94;5073299;28;46139;-73
2024/01/10 10:25:33;;;;;;;;;32.00;26.75;;;;;-144.24;100.00;114865.94;5071420;28;45504;-70
2024/01/10 10:27:59;;;;;;;;;28.50;24.50;;;;;-144.24;100.00;114865.94;5071641;27;45446;-69
2024/01/10 10:30:28;;;;;;;;;30.00;25.25;;;;;-144.24;100.00;114865.94;5073720;28;46110;-69
2024/01/10 10:32:54;;;;;;;;;31.50;22.25;;;;;-144.24;100.00;114865.94;5070329;28;45781;-70
2024/01/10 10:35:20;;;;;;;;;27.50;23.50;;;;;-144.24;100.00;114865.94;5071854;28;45675;-72
2024/01/10 10:37:50;;;;;;;;;38.50;25.75;;;;;-144.24;100.00;114865.94;5074359;27;45484;-69
2024/01/10 10:40:16;;;;;;;;;34.75;26.50;;;;;-144.24;100.00;114865.94;5072889;28;45595;-70